Home > Products > Valid Products > TAF

000
FTUS41 KBUF 282101 AAA
TAFART
TAF AMD
KART 282101Z 2821/2918 26006KT P6SM SCT250
     FM290000 VRB03KT P6SM SCT250
     FM290200 16004KT P6SM SCT250
     FM290800 19006KT 4SM BR SCT250
     FM291400 22009KT P6SM BKN070=



000
FTUS41 KBUF 282101 AAA
TAFJHW
TAF AMD
KJHW 282101Z 2821/2918 VRB04KT P6SM VCSH FEW050 SCT250
      TEMPO 2822/2823 4SM -TSRA BKN050CB
     FM290100 19004KT P6SM SCT050
     FM290500 18004KT 3SM BR SCT250
     FM290700 18004KT 1/2SM FG BKN002
     FM291300 20004KT P6SM BKN050
      AMD LTD TO CLD VIS AND WIND=



000
FTUS41 KBUF 282101 AAA
TAFROC
TAF AMD
KROC 282101Z 2821/2918 12005KT P6SM SCT050 SCT250
     FM290000 VRB03KT P6SM SCT250
     FM290300 17004KT P6SM SCT250
     FM290800 22006KT 5SM BR SCT250
     FM291300 24006KT P6SM BKN050=



000
FTUS41 KBUF 282101 AAA
TAFIAG
TAF AMD
KIAG 282101Z 2821/2918 VRB06KT P6SM FEW050 SCT250
     FM290000 VRB03KT P6SM SCT250
     FM290800 22004KT 5SM BR SCT050
     FM291200 22006KT P6SM BKN050
     FM291600 22009KT P6SM BKN080=



000
FTUS41 KBUF 282101 AAA
TAFBUF
TAF AMD
KBUF 282101Z 2821/2918 25008KT P6SM FEW045 SCT250
     FM282300 18005KT P6SM SCT250
     FM290800 20005KT 5SM BR SCT050
     FM291200 22006KT P6SM BKN050
     FM291600 23009KT P6SM BKN080=



000
FTUS41 KBUF 281720
TAFJHW
TAF
KJHW 281720Z 2818/2918 VRB03KT P6SM BKN050
     FM282000 18004KT P6SM VCTS BKN050CB
     FM282300 19005KT P6SM BKN050
     FM290200 19004KT P6SM SCT050
     FM290500 18004KT 3SM BR SCT250
     FM290700 18004KT 1/2SM FG BKN002
     FM291300 20004KT P6SM BKN050
      AMD LTD TO CLD VIS AND WIND=



000
FTUS41 KBUF 281720
TAFART
TAF
KART 281720Z 2818/2918 27007KT P6SM SCT250
     FM282200 22005KT P6SM SCT250
     FM290000 VRB03KT P6SM SCT250
     FM290200 16004KT P6SM SCT250
     FM290800 19006KT 4SM BR SCT250
     FM291400 22009KT P6SM BKN070=



000
FTUS41 KBUF 280244 AAA
TAFBUF
TAF AMD
KBUF 280244Z 2803/2824 22008KT P6SM SCT250
     FM280500 18005KT P6SM SCT200
     FM281100 19004KT P6SM BKN100
     FM281600 23008KT P6SM FEW050 SCT250=



000
FTUS41 KBUF 280244 AAA
TAFROC
TAF AMD
KROC 280244Z 2803/2824 21005KT P6SM SCT200
     FM281200 VRB03KT P6SM BKN120
     FM281500 VRB03KT P6SM SCT050 BKN120
     FM281800 01004KT P6SM SCT050
     FM282200 06005KT P6SM BKN140=



000
FTUS41 KBUF 280244 AAA
TAFJHW
TAF AMD
KJHW 280244Z 2803/2824 VRB03KT P6SM FEW050 SCT250
     FM280500 17005KT P6SM BKN200
     FM281000 18005KT P6SM BKN120
     FM281400 24004KT P6SM BKN050 BKN200
     FM281700 VRB03KT P6SM BKN035 BKN200
      AMD LTD TO CLD VIS AND WIND=



000
FTUS41 KBUF 280244 AAA
TAFART
TAF AMD
KART 280244Z 2803/2824 23005KT P6SM SCT250
     FM281600 23008KT P6SM SCT200
     FM282200 VRB03KT P6SM SCT250=



000
FTUS41 KBUF 280244 AAA
TAFIAG
TAF AMD
KIAG 280244Z 2803/2824 19006KT P6SM SCT200
     FM280900 19004KT P6SM BKN120
     FM281300 19004KT P6SM BKN200=



000
FTUS41 KBUF 271442 AAB
TAFBUF
TAF AMD
KBUF 271442Z 2715/2812 21015G25KT P6SM BKN021
     FM271700 24012G25KT P6SM FEW050 SCT250
     FM272200 23008KT P6SM FEW050 SCT250
     FM280200 20006KT P6SM SCT250
     FM280800 18004KT P6SM BKN130=



000
FTUS41 KBUF 271120
TAFROC
TAF
KROC 271120Z 2712/2812 23008KT P6SM SCT250
     FM272000 26008KT P6SM FEW050 SCT200
     FM280000 24004KT P6SM SCT250
     FM280800 VRB03KT P6SM SCT140 BKN200=



000
FTUS41 KBUF 271120
TAFIAG
TAF
KIAG 271120Z 2712/2812 22006KT P6SM SCT250
     FM271500 23010KT P6SM FEW050 SCT250
     FM271800 23010G18KT P6SM FEW050 FEW250
     FM272200 22008KT P6SM FEW050 SCT250
     FM280400 20004KT P6SM SCT200
     FM280800 VRB04KT P6SM BKN140=



000
FTUS41 KBUF 271120
TAFBUF
TAF
KBUF 271120Z 2712/2812 21006KT P6SM SCT250
     FM271500 24010KT P6SM FEW050 SCT250
     FM271800 24012G18KT P6SM FEW050 SCT250
     FM272200 23008KT P6SM FEW050 SCT250
     FM280200 20006KT P6SM SCT250
     FM280800 18004KT P6SM BKN130=



000
FTUS41 KBUF 271120
TAFJHW
TAF
KJHW 271120Z 2712/2812 20006KT P6SM SCT250
      TEMPO 2712/2713 4SM BR SCT015
     FM271500 23008KT P6SM SCT050 BKN250
     FM271800 24008KT P6SM VCTS SCT050CB BKN130
     FM272100 27006KT P6SM SCT050 BKN250
     FM280000 VRB03KT P6SM BKN250
     FM280400 VRB03KT P6SM BKN035
      AMD LTD TO CLD VIS AND WIND=



000
FTUS41 KBUF 270920 AAA
TAFART
TAF AMD
KART 270920Z 2709/2806 VRB03KT 6SM BR SCT250
      TEMPO 2710/2712 4SM BR
     FM271200 21005KT P6SM SCT250
     FM271600 23010KT P6SM FEW045 SCT250
     FM271900 24010G18KT P6SM FEW050 SCT250
     FM272200 23008KT P6SM FEW050
     FM280100 00000KT P6SM FEW250=



000
FTUS41 KBUF 270919 AAA
TAFJHW
TAF AMD
KJHW 270919Z 2709/2806 19006KT P6SM FEW060 BKN250
      TEMPO 2710/2712 2SM BR
     FM271400 22006KT P6SM SCT050 BKN200
     FM271800 24008KT P6SM VCSH SCT040 BKN060
     FM272000 26008KT P6SM SCT050 BKN200
     FM280000 VRB03KT P6SM SCT100 BKN250
      AMD LTD TO CLD VIS AND WIND=



000
FTUS41 KBUF 261734
TAFJHW
TAF
KJHW 261734Z 2618/2718 22011G16KT 6SM -SHRA VCTS OVC035CB
     FM262100 22012KT P6SM BKN035
     FM270200 17004KT P6SM SCT050
     FM271100 22008KT 4SM BR BKN035
     FM271400 25009KT P6SM VCSH BKN035
      AMD LTD TO CLD VIS AND WIND=



000
FTUS41 KBUF 261734
TAFART
TAF
KART 261734Z 2618/2718 26007KT P6SM BKN035
     FM262100 20004KT P6SM -SHRA VCTS OVC035CB
     FM270200 VRB03KT P6SM SCT035
     FM271200 20010KT P6SM SCT250=



000
FTUS41 KBUF 261734
TAFROC
TAF
KROC 261734Z 2618/2718 22012KT 6SM -SHRA VCTS OVC035CB
     FM262200 14006KT P6SM BKN035
     FM270200 15007KT P6SM SCT100
     FM271300 23010KT P6SM BKN035
     FM271700 25013KT P6SM SCT035=



000
FTUS41 KBUF 261734
TAFIAG
TAF
KIAG 261734Z 2618/2718 22013KT P6SM BKN035
     FM270000 19006KT P6SM SCT090
     FM270800 21011KT P6SM BKN250=



000
FTUS41 KBUF 261734
TAFBUF
TAF
KBUF 261734Z 2618/2718 22015G22KT P6SM BKN035
     FM270000 20006KT P6SM SCT100
     FM271200 23012KT P6SM BKN035
     FM271400 23013KT P6SM BKN250=



000
FTUS41 KBUF 260242 AAA
TAFIAG
TAF AMD
KIAG 260242Z 2603/2624 20004KT P6SM SCT250
     FM260900 13004KT P6SM FEW200 SCT250
     FM261200 14006KT P6SM SCT060 BKN250
     FM261700 21010KT P6SM VCSH BKN045 OVC100
     FM262000 22010KT P6SM BKN050 OVC100=



000
FTUS41 KBUF 260242 AAA
TAFART
TAF AMD
KART 260242Z 2603/2624 VRB03KT P6SM SKC
     FM261500 VRB05KT P6SM FEW060 SCT250
     FM261700 25004KT P6SM BKN045 BKN250
     FM262000 15004KT P6SM SCT060 BKN100=



000
FTUS41 KBUF 260242 AAA
TAFJHW
TAF AMD
KJHW 260242Z 2603/2624 VRB03KT P6SM BKN200
     FM261200 17004KT P6SM SCT060 BKN100
     FM261400 19005KT P6SM VCSH BKN045 OVC100
     FM261800 19007KT P6SM -SHRA VCTS BKN030CB OVC100
     FM262200 23006KT P6SM VCSH BKN045 BKN100
      AMD LTD TO CLD VIS AND WIND=



000
FTUS41 KBUF 260242 AAA
TAFBUF
TAF AMD
KBUF 260242Z 2603/2624 19006KT P6SM SCT200
     FM261100 15005KT P6SM SCT060 BKN200
     FM261600 21008KT P6SM VCSH BKN050 BKN100
     FM262000 23008KT P6SM BKN060 OVC100=



000
FTUS41 KBUF 260242 AAA
TAFROC
TAF AMD
KROC 260242Z 2603/2624 23006KT P6SM SCT200
     FM261100 14004KT P6SM FEW110 SCT250
     FM261500 19005KT P6SM BKN060 BKN100
     FM261700 17006KT P6SM VCSH BKN045 BKN100
     FM262100 VRB03KT P6SM VCSH BKN030 OVC100=



    US Dept of Commerce
    National Oceanic and Atmospheric Administration
    National Weather Service
    1325 East West Highway
    Silver Spring, MD 20910
    Page Author: NWS Internet Services Team
Disclaimer
Information Quality
Credits
Glossary
Privacy Policy
Freedom of Information Act (FOIA)
About Us
Career Opportunities